VTBO

Trat Airport

Thailand
TAF VTBO 202300Z 2100/2124 00000KT 5000 BR FEW020 BECMG 2101/2103 22010KT 8000 NSW SCT020 TEMPO 2104/2110 VRB12KT 5000 TSRA FEW016CB SCT020 BECMG 2112/2114 14005KT 6000 BECMG 2121/2123 00000KT 5000 BR FEW020
Issued Valid From Valid To
Apr-20 @ 23:00 UTC
(5 hours ago)
Apr-21 @ 00:00 UTC
(4 hours ago)
Apr-22 @ 00:00 UTC
(in 20 hours)
Expired Click to View Apr-21 @ 00:00 to Apr-21 @ 01:00
TAF VTBO 202300Z 2100/2124 00000KT 5000 BR FEW020
Visibility Clouds Conditions
5,005 meters
  • Few at 2,000' AGL
  • Mist
Becoming Apr-21 @ 01:00 to Apr-21 @ 12:00
BECMG 2101/2103 22010KT 8000 NSW SCT020
Wind Visibility Clouds Conditions
220° at 10 knots 7,998 meters
  • Scattered at 2,000' AGL
Temporary Apr-21 @ 04:00 to Apr-21 @ 10:00
TEMPO 2104/2110 VRB12KT 5000 TSRA FEW016CB SCT020
Wind Visibility Clouds Conditions
Variable at 12 knots 5,005 meters
  • Few at 1,600' AGL
  • Scattered at 2,000' AGL
  • Thunderstorm
  • Rain
Becoming Apr-21 @ 12:00 to Apr-21 @ 21:00
BECMG 2112/2114 14005KT 6000
Wind Visibility Clouds Conditions
140° at 5 knots 6,003 meters
  • Scattered at 2,000' AGL
Becoming Apr-21 @ 21:00 to Apr-22 @ 00:00
BECMG 2121/2123 00000KT 5000 BR FEW020
Visibility Clouds Conditions
5,005 meters
  • Few at 2,000' AGL
  • Mist
TAF VTBO 202300Z 2100/2124 00000KT 5000 BR FEW020 BECMG 2101/2103 22010KT 8000 NSW SCT020 TEMPO 2104/2110 VRB12KT 5000 TSRA FEW016CB SCT020 BECMG 2112/2114 14005KT 6000 BECMG 2121/2123 00000KT 5000 BR FEW020
Issued Apr-20 @ 23:00 UTC
(5 hours ago)
Valid From Apr-21 @ 00:00 UTC
(4 hours ago)
Valid To Apr-22 @ 00:00 UTC
(in 20 hours)
Apr-21 @ 00:00 - Apr-21 @ 01:00
Clouds
  • Few at 2,000' AGL
Conditions
  • Mist
Becoming Apr-21 @ 01:00 - Apr-21 @ 12:00
Wind Visibility
220° at 10 knots 7,998 meters
Clouds
  • Scattered at 2,000' AGL
Conditions
Temporary Apr-21 @ 04:00 - Apr-21 @ 10:00
Wind Visibility
Variable at 12 knots 5,005 meters
Clouds
  • Few at 1,600' AGL
  • Scattered at 2,000' AGL
Conditions
  • Thunderstorm
  • Rain
Becoming Apr-21 @ 12:00 - Apr-21 @ 21:00
Wind Visibility
140° at 5 knots 6,003 meters
Clouds
  • Scattered at 2,000' AGL
Conditions
Becoming Apr-21 @ 21:00 - Apr-22 @ 00:00
Clouds
  • Few at 2,000' AGL
Conditions
  • Mist